createdAt,value
2022-11-30T00:01:23.579Z,100047.08
2022-11-30T00:03:55.663Z,100047.77
2022-11-30T00:06:24.692Z,100048.97
2022-11-30T00:08:56.816Z,100049.68
2022-11-30T00:11:26.592Z,100052.11
2022-11-30T00:13:54.455Z,100050.83
2022-11-30T00:16:22.339Z,100052.04
2022-11-30T00:18:50.745Z,100053.54
2022-11-30T00:21:18.798Z,100047.94
2022-11-30T00:23:47.847Z,100052.30
2022-11-30T00:26:18.712Z,100052.14
2022-11-30T00:28:47.645Z,100052.98
2022-11-30T00:31:16.861Z,100050.08
2022-11-30T00:33:45.082Z,100055.43
2022-11-30T00:36:22.668Z,100058.77
2022-11-30T00:38:51.983Z,100060.95
2022-11-30T00:41:20.156Z,100060.20
2022-11-30T00:43:47.990Z,100058.11
2022-11-30T00:46:15.746Z,100059.27
2022-11-30T00:48:43.408Z,100065.90
2022-11-30T00:51:12.139Z,100064.96
2022-11-30T00:53:40.900Z,100065.64
2022-11-30T00:56:09.205Z,100064.86
2022-11-30T00:58:36.853Z,100060.67
2022-11-30T01:01:05.018Z,100058.91
2022-11-30T01:03:33.775Z,100057.02
2022-11-30T01:06:03.333Z,100063.37
2022-11-30T01:08:31.071Z,100063.23
2022-11-30T01:11:06.169Z,100067.20
2022-11-30T01:13:33.836Z,100067.77
2022-11-30T01:16:01.761Z,100070.77
2022-11-30T01:18:29.537Z,100070.88
2022-11-30T01:20:57.137Z,100069.20
2022-11-30T01:23:24.751Z,100073.09
2022-11-30T01:25:55.656Z,100068.67
2022-11-30T01:28:23.258Z,100076.59
2022-11-30T01:31:03.824Z,100077.71
2022-11-30T01:33:32.069Z,100078.26
2022-11-30T01:36:16.964Z,100081.73
2022-11-30T01:38:47.388Z,100086.23
2022-11-30T01:41:19.542Z,100087.95
2022-11-30T01:43:51.575Z,100084.02
2022-11-30T01:46:29.179Z,100086.75
2022-11-30T01:49:07.557Z,100082.75
2022-11-30T01:51:48.167Z,100083.05
2022-11-30T01:54:22.082Z,100085.10
2022-11-30T01:56:55.908Z,100083.77
2022-11-30T01:59:24.819Z,100082.33
2022-11-30T02:01:54.015Z,100080.00
2022-11-30T02:04:29.063Z,100081.55
2022-11-30T02:06:57.722Z,100076.98
2022-11-30T02:09:26.484Z,100082.02
2022-11-30T02:11:54.108Z,100085.75
2022-11-30T02:14:25.750Z,100081.64
2022-11-30T02:17:06.612Z,100087.06
2022-11-30T02:19:57.566Z,100081.56
2022-11-30T02:22:58.836Z,100087.70
2022-11-30T02:25:33.912Z,100088.25
2022-11-30T02:28:16.923Z,100090.58
2022-11-30T02:30:48.118Z,100089.23
2022-11-30T02:33:18.753Z,100089.91
2022-11-30T02:35:54.509Z,100093.34
2022-11-30T02:38:24.340Z,100091.42
2022-11-30T02:40:52.101Z,100088.98
2022-11-30T02:43:21.961Z,100090.83
2022-11-30T02:46:11.640Z,100086.31
2022-11-30T02:48:50.429Z,100090.39
2022-11-30T02:51:20.481Z,100091.02
2022-11-30T02:53:48.320Z,100091.92
2022-11-30T02:56:17.460Z,100087.52
2022-11-30T02:58:45.350Z,100089.71
2022-11-30T03:01:13.139Z,100088.20
2022-11-30T03:03:40.804Z,100092.18
2022-11-30T03:06:08.401Z,100094.55
2022-11-30T03:08:36.015Z,100095.05
2022-11-30T03:11:05.146Z,100100.68
2022-11-30T03:13:34.356Z,100105.00
2022-11-30T03:16:07.349Z,100110.48
2022-11-30T03:18:35.017Z,100111.33
2022-11-30T03:21:06.501Z,100110.98
2022-11-30T03:23:35.429Z,100113.13
2022-11-30T03:26:04.146Z,100114.28
2022-11-30T03:28:32.137Z,100116.42
2022-11-30T03:31:00.275Z,100116.83
2022-11-30T03:33:27.995Z,100114.34
2022-11-30T03:36:03.789Z,100112.58
2022-11-30T03:38:32.268Z,100115.02
2022-11-30T03:41:01.650Z,100114.19
2022-11-30T03:43:29.765Z,100113.30
2022-11-30T03:45:57.795Z,100114.15
2022-11-30T03:48:25.471Z,100114.63
2022-11-30T03:50:53.201Z,100114.99
2022-11-30T03:53:22.713Z,100115.69
2022-11-30T03:55:55.428Z,100118.83
2022-11-30T03:58:23.780Z,100122.16
2022-11-30T04:00:59.795Z,100118.36
2022-11-30T04:03:27.448Z,100124.70
2022-11-30T04:05:55.650Z,100124.91
2022-11-30T04:08:23.415Z,100123.16
2022-11-30T04:10:52.247Z,100121.95
2022-11-30T04:13:21.311Z,100121.67
2022-11-30T04:15:50.527Z,100124.93
2022-11-30T04:18:19.513Z,100125.17
2022-11-30T04:20:47.431Z,100120.59
2022-11-30T04:23:15.095Z,100117.98
2022-11-30T04:25:42.720Z,100120.96
2022-11-30T04:28:10.802Z,100121.84
2022-11-30T04:30:38.417Z,100124.78
2022-11-30T04:33:06.224Z,100124.55
2022-11-30T04:35:33.997Z,100118.23
2022-11-30T04:38:01.591Z,100128.27
2022-11-30T04:40:29.200Z,100128.16
2022-11-30T04:42:56.820Z,100127.20
2022-11-30T04:45:24.414Z,100128.86
2022-11-30T04:47:52.000Z,100130.95
2022-11-30T04:50:19.683Z,100127.98
2022-11-30T04:52:47.295Z,100128.75
2022-11-30T04:55:17.212Z,100129.62
2022-11-30T04:57:46.514Z,100136.23
2022-11-30T05:00:16.309Z,100137.55
2022-11-30T05:02:49.014Z,100138.55
2022-11-30T05:05:20.249Z,100143.70
2022-11-30T05:07:55.069Z,100142.68
2022-11-30T05:10:23.518Z,100143.52
2022-11-30T05:12:51.295Z,100145.48
2022-11-30T05:15:19.287Z,100145.30
2022-11-30T05:17:46.955Z,100145.40
2022-11-30T05:20:14.672Z,100141.60
2022-11-30T05:22:42.766Z,100141.70
2022-11-30T05:25:10.574Z,100141.91
2022-11-30T05:27:38.234Z,100141.43
2022-11-30T05:30:06.754Z,100144.89
2022-11-30T05:32:35.107Z,100144.98
2022-11-30T05:35:02.764Z,100142.08
2022-11-30T05:37:30.566Z,100143.20
2022-11-30T05:39:58.181Z,100148.38
2022-11-30T05:42:25.862Z,100153.59
2022-11-30T05:44:53.523Z,100156.80
2022-11-30T05:47:21.116Z,100152.26
2022-11-30T05:49:48.727Z,100153.79
2022-11-30T05:52:16.302Z,100154.11
2022-11-30T05:54:43.923Z,100153.29
2022-11-30T05:57:11.500Z,100158.20
2022-11-30T05:59:39.107Z,100157.84
2022-11-30T06:02:06.768Z,100159.42
2022-11-30T06:04:34.776Z,100159.70
2022-11-30T06:07:02.462Z,100166.28
2022-11-30T06:09:30.179Z,100168.60
2022-11-30T06:11:57.761Z,100172.46
2022-11-30T06:14:25.353Z,100175.08
2022-11-30T06:16:53.092Z,100174.05
2022-11-30T06:19:20.821Z,100175.08
2022-11-30T06:21:48.416Z,100177.71
2022-11-30T06:24:16.007Z,100178.98
2022-11-30T06:26:43.609Z,100178.75
2022-11-30T06:29:11.641Z,100181.93
2022-11-30T06:31:39.350Z,100184.30
2022-11-30T06:34:06.996Z,100187.85
2022-11-30T06:36:36.382Z,100191.73
2022-11-30T06:39:04.926Z,100188.63
2022-11-30T06:41:32.564Z,100191.92
2022-11-30T06:44:00.275Z,100196.77
2022-11-30T06:46:27.972Z,100201.79
2022-11-30T06:48:55.838Z,100205.27
2022-11-30T06:51:23.430Z,100201.82
2022-11-30T06:53:51.055Z,100207.94
2022-11-30T06:56:18.809Z,100205.48
2022-11-30T06:58:46.539Z,100204.86
2022-11-30T07:01:15.273Z,100205.56
2022-11-30T07:03:43.753Z,100202.81
2022-11-30T07:06:13.050Z,100208.77
2022-11-30T07:08:41.471Z,100214.67
2022-11-30T07:11:10.520Z,100218.38
2022-11-30T07:13:38.597Z,100222.05
2022-11-30T07:16:07.982Z,100224.50
2022-11-30T07:18:35.880Z,100226.15
2022-11-30T07:21:05.256Z,100227.49
2022-11-30T07:23:56.329Z,100228.64
2022-11-30T07:26:25.432Z,100231.41
2022-11-30T07:28:55.198Z,100233.78
2022-11-30T07:31:26.033Z,100236.20
2022-11-30T07:33:54.513Z,100236.38
2022-11-30T07:36:23.838Z,100238.57
2022-11-30T07:38:51.865Z,100237.96
2022-11-30T07:41:19.522Z,100237.96
2022-11-30T07:43:47.135Z,100234.52
2022-11-30T07:46:15.894Z,100225.25
2022-11-30T07:48:44.548Z,100233.06
2022-11-30T07:51:14.652Z,100231.94
2022-11-30T07:53:42.909Z,100230.95
2022-11-30T07:56:15.829Z,100229.23
2022-11-30T07:58:44.176Z,100225.48
2022-11-30T08:01:17.884Z,100223.04
2022-11-30T08:03:45.644Z,100231.56
2022-11-30T08:06:15.288Z,100226.04
2022-11-30T08:08:44.610Z,100228.20
2022-11-30T08:11:14.617Z,100222.08
2022-11-30T08:13:43.262Z,100224.36
2022-11-30T08:16:13.544Z,100227.77
2022-11-30T08:18:41.980Z,100228.64
2022-11-30T08:21:12.063Z,100228.07
2022-11-30T08:23:42.186Z,100231.56
2022-11-30T08:26:18.162Z,100237.68
2022-11-30T08:28:47.434Z,100239.80
2022-11-30T08:31:29.524Z,100239.23
2022-11-30T08:33:59.895Z,100243.79
2022-11-30T08:36:28.880Z,100236.98
2022-11-30T08:38:58.331Z,100242.95
2022-11-30T08:41:26.304Z,100244.33
2022-11-30T08:43:54.369Z,100241.82
2022-11-30T08:49:26.551Z,100241.88
2022-11-30T08:57:33.348Z,100229.27
2022-11-30T09:00:01.079Z,100229.17
2022-11-30T09:02:28.764Z,100227.66
2022-11-30T09:04:57.024Z,100226.90
2022-11-30T09:07:24.712Z,100227.74
2022-11-30T09:09:52.394Z,100226.23
2022-11-30T09:12:20.011Z,100230.30
2022-11-30T09:14:53.867Z,100231.73
2022-11-30T09:17:23.706Z,100233.45
2022-11-30T09:19:51.370Z,100237.52
2022-11-30T09:22:19.345Z,100244.15
2022-11-30T09:24:47.376Z,100240.04
2022-11-30T09:27:15.353Z,100236.96
2022-11-30T09:29:42.975Z,100237.98
2022-11-30T09:32:10.595Z,100235.03
2022-11-30T09:34:38.332Z,100240.92
2022-11-30T09:37:05.963Z,100241.55
2022-11-30T09:39:33.584Z,100236.76
2022-11-30T09:42:24.687Z,100237.93
2022-11-30T09:45:03.005Z,100240.49
2022-11-30T09:47:45.934Z,100239.70
2022-11-30T09:50:19.386Z,100244.80
2022-11-30T09:52:50.328Z,100240.80
2022-11-30T09:55:26.307Z,100238.81
2022-11-30T09:58:00.297Z,100242.63
2022-11-30T10:00:28.205Z,100246.65
2022-11-30T10:02:57.779Z,100245.89
2022-11-30T10:05:31.836Z,100247.92
2022-11-30T10:08:38.344Z,100248.83
2022-11-30T10:11:24.527Z,100247.86
2022-11-30T10:14:14.143Z,100249.89
2022-11-30T10:16:58.039Z,100250.23
2022-11-30T10:19:45.046Z,100247.65
2022-11-30T10:22:31.333Z,100249.58
2022-11-30T10:25:33.985Z,100248.14
2022-11-30T10:28:44.873Z,100250.14
2022-11-30T10:31:04.033Z,100251.05
2022-11-30T10:33:38.738Z,100244.00
2022-11-30T10:36:12.403Z,100245.27
2022-11-30T10:38:44.358Z,100247.73
2022-11-30T10:41:17.775Z,100245.52
2022-11-30T10:44:13.404Z,100248.31
2022-11-30T10:46:44.505Z,100253.70
2022-11-30T10:49:17.504Z,100254.24
2022-11-30T10:51:47.975Z,100258.59
2022-11-30T10:54:18.870Z,100260.58
2022-11-30T10:56:47.210Z,100260.11
2022-11-30T10:59:37.287Z,100255.70
2022-11-30T11:02:35.224Z,100260.67
2022-11-30T11:05:30.953Z,100248.94
2022-11-30T11:08:25.054Z,100245.55
2022-11-30T11:10:52.831Z,100246.25
2022-11-30T11:13:38.510Z,100239.19
2022-11-30T11:16:09.223Z,100239.17
2022-11-30T11:18:52.018Z,100235.43
2022-11-30T11:21:21.747Z,100236.81
2022-11-30T11:23:57.110Z,100234.01
2022-11-30T11:26:29.388Z,100232.75
2022-11-30T11:29:01.190Z,100234.98
2022-11-30T11:31:40.979Z,100236.39
2022-11-30T11:34:24.844Z,100232.29
2022-11-30T11:37:19.213Z,100230.48
2022-11-30T11:40:14.584Z,100237.16
2022-11-30T11:42:51.298Z,100239.83
2022-11-30T11:45:22.920Z,100242.54
2022-11-30T11:48:02.074Z,100238.07
2022-11-30T11:51:05.137Z,100238.81
2022-11-30T11:53:25.398Z,100238.34
2022-11-30T11:56:00.248Z,100237.55
2022-11-30T11:58:37.498Z,100239.81
2022-11-30T12:01:38.749Z,100238.52
2022-11-30T12:04:18.648Z,100243.31
2022-11-30T12:06:46.555Z,100246.86
2022-11-30T12:09:24.240Z,100246.86
2022-11-30T12:11:51.976Z,100250.21
2022-11-30T12:14:19.652Z,100254.56
2022-11-30T12:17:16.742Z,100249.02
2022-11-30T12:20:13.989Z,100251.32
2022-11-30T12:23:08.029Z,100254.09
2022-11-30T12:25:51.121Z,100255.14
2022-11-30T12:28:35.623Z,100252.46
2022-11-30T12:31:11.741Z,100256.61
2022-11-30T12:34:01.855Z,100255.24
2022-11-30T12:36:52.031Z,100257.58
2022-11-30T12:39:45.544Z,100263.14
2022-11-30T12:42:25.721Z,100262.11
2022-11-30T12:45:09.021Z,100265.31
2022-11-30T12:47:58.323Z,100264.89
2022-11-30T12:51:07.117Z,100261.20
2022-11-30T12:53:53.920Z,100264.38
2022-11-30T12:56:48.569Z,100264.02
2022-11-30T12:59:52.668Z,100260.77
2022-11-30T13:02:32.644Z,100267.45
2022-11-30T13:05:04.282Z,100270.13
2022-11-30T13:07:43.872Z,100265.09
2022-11-30T13:10:35.316Z,100264.72
2022-11-30T13:13:04.488Z,100262.06
2022-11-30T13:15:35.393Z,100261.56
2022-11-30T13:18:03.788Z,100261.49
2022-11-30T13:20:42.459Z,100258.34
2022-11-30T13:23:15.042Z,100256.30
2022-11-30T13:26:07.343Z,100255.45
2022-11-30T13:28:42.533Z,100250.93
2022-11-30T13:31:21.295Z,100252.61
2022-11-30T13:33:55.301Z,100248.95
2022-11-30T13:36:43.506Z,100254.89
2022-11-30T13:39:14.120Z,100250.77
2022-11-30T13:41:49.238Z,100248.80
2022-11-30T13:44:37.149Z,100248.05
2022-11-30T13:47:06.927Z,100253.59
2022-11-30T13:49:35.891Z,100256.00
2022-11-30T13:54:54.605Z,100255.22
2022-11-30T13:57:25.352Z,100262.11
2022-11-30T14:00:00.278Z,100264.30
2022-11-30T14:02:51.382Z,100260.73
2022-11-30T14:05:35.106Z,100261.86
2022-11-30T14:08:03.017Z,100264.20
2022-11-30T14:10:32.864Z,100262.87
2022-11-30T14:13:02.678Z,100260.02
2022-11-30T14:15:39.560Z,100261.30
2022-11-30T14:18:10.086Z,100263.27
2022-11-30T14:21:19.788Z,100263.39
2022-11-30T14:23:58.013Z,100266.98
2022-11-30T14:26:29.117Z,100263.69
2022-11-30T14:29:04.440Z,100264.61
2022-11-30T14:31:37.461Z,100262.38
2022-11-30T14:34:09.986Z,100264.78
2022-11-30T14:36:42.050Z,100268.51
2022-11-30T14:39:33.948Z,100268.50
2022-11-30T14:42:02.602Z,100270.73
2022-11-30T14:44:40.329Z,100268.10
2022-11-30T14:47:30.935Z,100271.04
2022-11-30T14:50:02.562Z,100273.48
2022-11-30T14:52:52.297Z,100275.46
2022-11-30T14:55:30.121Z,100277.04
2022-11-30T14:58:12.661Z,100277.89
2022-11-30T15:00:42.804Z,100278.02
2022-11-30T15:03:40.913Z,100274.38
2022-11-30T15:06:08.703Z,100278.42
2022-11-30T15:08:43.337Z,100277.36
2022-11-30T15:11:13.569Z,100284.05
2022-11-30T15:13:53.840Z,100283.33
2022-11-30T15:16:24.115Z,100283.18
2022-11-30T15:18:53.608Z,100281.59
2022-11-30T15:21:26.833Z,100280.83
2022-11-30T15:23:57.184Z,100280.57
2022-11-30T15:26:32.546Z,100277.18
2022-11-30T15:29:16.870Z,100279.56
2022-11-30T15:31:46.192Z,100276.25
2022-11-30T15:34:45.578Z,100284.89
2022-11-30T15:37:13.400Z,100282.75
2022-11-30T15:39:48.615Z,100280.98
2022-11-30T15:42:24.170Z,100278.20
2022-11-30T15:44:52.988Z,100280.46
2022-11-30T15:47:26.354Z,100282.40
2022-11-30T15:49:55.445Z,100281.10
2022-11-30T15:52:28.789Z,100280.13
2022-11-30T15:55:03.227Z,100281.42
2022-11-30T15:58:03.601Z,100278.10
2022-11-30T16:00:31.579Z,100281.11
2022-11-30T16:03:13.126Z,100282.13
2022-11-30T16:05:54.136Z,100281.64
2022-11-30T16:08:21.795Z,100287.66
2022-11-30T16:10:49.840Z,100289.43
2022-11-30T16:13:20.166Z,100289.48
2022-11-30T16:15:49.988Z,100290.55
2022-11-30T16:18:22.625Z,100289.92
2022-11-30T16:20:56.654Z,100291.52
2022-11-30T16:23:25.920Z,100293.67
2022-11-30T16:25:54.036Z,100295.61
2022-11-30T16:28:22.553Z,100293.33
2022-11-30T16:30:51.030Z,100292.27
2022-11-30T16:33:23.332Z,100294.91
2022-11-30T16:36:02.688Z,100298.05
2022-11-30T16:38:30.320Z,100295.89
2022-11-30T16:41:18.067Z,100294.43
2022-11-30T16:43:47.792Z,100294.46
2022-11-30T16:46:18.105Z,100291.50
2022-11-30T16:48:47.820Z,100296.56
2022-11-30T16:51:21.687Z,100301.17
2022-11-30T16:53:49.332Z,100302.03
2022-11-30T16:56:17.332Z,100308.69
2022-11-30T16:58:45.638Z,100312.04
2022-11-30T17:01:17.138Z,100312.18
2022-11-30T17:03:50.304Z,100313.33
2022-11-30T17:06:20.528Z,100314.44
2022-11-30T17:08:49.110Z,100316.51
2022-11-30T17:11:29.262Z,100320.09
2022-11-30T17:13:56.869Z,100320.23
2022-11-30T17:16:24.957Z,100318.90
2022-11-30T17:18:52.595Z,100323.10
2022-11-30T17:21:24.372Z,100315.04
2022-11-30T17:23:51.956Z,100321.57
2022-11-30T17:26:19.703Z,100318.05
2022-11-30T17:28:47.441Z,100320.96
2022-11-30T17:31:15.737Z,100325.84
2022-11-30T17:33:47.948Z,100320.27
2022-11-30T17:36:16.935Z,100320.67
2022-11-30T17:38:45.251Z,100321.94
2022-11-30T17:41:18.825Z,100325.44
2022-11-30T17:43:48.618Z,100320.38
2022-11-30T17:46:18.275Z,100323.28
2022-11-30T17:48:46.267Z,100322.47
2022-11-30T17:51:14.014Z,100321.55
2022-11-30T17:53:42.658Z,100328.44
2022-11-30T17:56:12.964Z,100325.90
2022-11-30T17:58:44.046Z,100328.73
2022-11-30T18:01:26.140Z,100331.06
2022-11-30T18:03:55.350Z,100332.00
2022-11-30T18:06:23.211Z,100332.14
2022-11-30T18:08:50.917Z,100334.33
2022-11-30T18:11:20.840Z,100333.76
2022-11-30T18:13:51.568Z,100335.05
2022-11-30T18:16:22.075Z,100333.69
2022-11-30T18:18:49.772Z,100333.16
2022-11-30T18:21:19.438Z,100332.61
2022-11-30T18:23:47.912Z,100338.33
2022-11-30T18:26:21.664Z,100335.83
2022-11-30T18:28:55.302Z,100332.19
2022-11-30T18:31:23.056Z,100334.86
2022-11-30T18:33:58.010Z,100338.36
2022-11-30T18:36:25.890Z,100336.60
2022-11-30T18:38:53.994Z,100337.83
2022-11-30T18:41:22.199Z,100341.21
2022-11-30T18:43:49.816Z,100341.16
2022-11-30T18:46:17.488Z,100332.62
2022-11-30T18:48:48.316Z,100334.33
2022-11-30T18:51:24.682Z,100338.25
2022-11-30T18:54:00.855Z,100340.73
2022-11-30T18:56:31.415Z,100338.17
2022-11-30T18:59:01.635Z,100343.60
2022-11-30T19:01:30.670Z,100339.20
2022-11-30T19:04:05.137Z,100343.11
2022-11-30T19:06:33.257Z,100343.10
2022-11-30T19:09:03.617Z,100344.86
2022-11-30T19:11:35.063Z,100347.75
2022-11-30T19:14:03.827Z,100351.23
2022-11-30T19:16:34.513Z,100347.70
2022-11-30T19:19:06.159Z,100350.10
2022-11-30T19:21:34.269Z,100351.92
2022-11-30T19:24:02.054Z,100350.85
2022-11-30T19:26:30.102Z,100345.31
2022-11-30T19:28:59.017Z,100351.30
2022-11-30T19:31:26.844Z,100352.02
2022-11-30T19:33:55.696Z,100353.98
2022-11-30T19:36:26.114Z,100352.27
2022-11-30T19:38:54.530Z,100354.36
2022-11-30T19:41:22.217Z,100354.31
2022-11-30T19:44:03.710Z,100354.48
2022-11-30T19:46:33.267Z,100358.09
2022-11-30T19:49:01.903Z,100358.11
2022-11-30T19:51:30.950Z,100360.45
2022-11-30T19:54:01.500Z,100359.81
2022-11-30T19:56:31.249Z,100365.36
2022-11-30T19:59:04.543Z,100365.26
2022-11-30T20:01:35.253Z,100364.47
2022-11-30T20:04:03.358Z,100363.73
2022-11-30T20:06:34.061Z,100366.64
2022-11-30T20:09:03.380Z,100370.82
2022-11-30T20:11:31.606Z,100370.75
2022-11-30T20:14:00.333Z,100375.55
2022-11-30T20:16:28.612Z,100376.74
2022-11-30T20:19:00.547Z,100379.31
2022-11-30T20:21:33.570Z,100379.54
2022-11-30T20:24:04.356Z,100379.08
2022-11-30T20:26:37.327Z,100381.48
2022-11-30T20:29:06.814Z,100381.77
2022-11-30T20:31:36.164Z,100383.50
2022-11-30T20:34:04.397Z,100384.98
2022-11-30T20:36:32.112Z,100382.04
2022-11-30T20:38:59.975Z,100385.48
2022-11-30T20:41:27.665Z,100382.06
2022-11-30T20:43:55.981Z,100384.05
2022-11-30T20:46:27.991Z,100383.93
2022-11-30T20:48:56.345Z,100385.10
2022-11-30T20:51:31.709Z,100385.53
2022-11-30T20:54:03.222Z,100387.45
2022-11-30T20:56:32.736Z,100386.86
2022-11-30T20:59:02.155Z,100387.87
2022-11-30T21:01:30.175Z,100386.53
2022-11-30T21:04:00.651Z,100386.25
2022-11-30T21:06:29.958Z,100383.38
2022-11-30T21:08:58.224Z,100384.41
2022-11-30T21:11:27.498Z,100377.90
2022-11-30T21:13:55.916Z,100385.95
2022-11-30T21:16:28.081Z,100383.20
2022-11-30T21:18:58.786Z,100383.21
2022-11-30T21:21:30.688Z,100381.89
2022-11-30T21:24:00.507Z,100386.12
2022-11-30T21:26:34.401Z,100387.34
2022-11-30T21:29:05.155Z,100386.21
2022-11-30T21:31:33.687Z,100382.30
2022-11-30T21:34:01.506Z,100389.16
2022-11-30T21:36:29.549Z,100384.39
2022-11-30T21:39:05.181Z,100379.38
2022-11-30T21:41:38.256Z,100382.52
2022-11-30T21:44:08.060Z,100384.38
2022-11-30T21:46:35.910Z,100380.63
2022-11-30T21:49:04.144Z,100377.61
2022-11-30T21:51:32.017Z,100377.19
2022-11-30T21:54:02.314Z,100376.76
2022-11-30T21:56:32.764Z,100377.18
2022-11-30T21:59:01.313Z,100376.10
2022-11-30T22:01:31.947Z,100377.05
2022-11-30T22:04:00.909Z,100375.44
2022-11-30T22:06:29.988Z,100372.71
2022-11-30T22:09:03.079Z,100372.92
2022-11-30T22:11:31.214Z,100374.31
2022-11-30T22:13:58.980Z,100371.98
2022-11-30T22:16:32.586Z,100369.30
2022-11-30T22:19:04.494Z,100367.17
2022-11-30T22:21:32.495Z,100368.79
2022-11-30T22:24:05.390Z,100367.95
2022-11-30T22:26:35.449Z,100364.30
2022-11-30T22:29:13.138Z,100366.70
2022-11-30T22:31:43.816Z,100359.95
2022-11-30T22:34:11.697Z,100362.44
2022-11-30T22:36:40.902Z,100367.30
2022-11-30T22:39:10.823Z,100364.95
2022-11-30T22:41:39.392Z,100364.51
2022-11-30T22:44:07.065Z,100369.55
2022-11-30T22:46:36.749Z,100372.90
2022-11-30T22:49:07.305Z,100371.25
2022-11-30T22:51:36.245Z,100369.47
2022-11-30T22:54:04.848Z,100366.02
2022-11-30T22:56:37.633Z,100369.73
2022-11-30T22:59:06.247Z,100367.99
2022-11-30T23:01:36.885Z,100366.33
2022-11-30T23:04:10.359Z,100362.73
2022-11-30T23:06:39.303Z,100362.60
2022-11-30T23:09:09.990Z,100365.95
2022-11-30T23:11:37.709Z,100362.32
2022-11-30T23:14:08.197Z,100366.02
2022-11-30T23:16:36.763Z,100370.04
2022-11-30T23:19:05.338Z,100368.08
2022-11-30T23:21:40.640Z,100365.13
2022-11-30T23:24:17.379Z,100361.49
2022-11-30T23:26:45.080Z,100361.02
2022-11-30T23:29:15.195Z,100356.41
2022-11-30T23:31:44.019Z,100357.39
2022-11-30T23:34:14.495Z,100355.02
2022-11-30T23:36:42.517Z,100354.86
2022-11-30T23:39:13.266Z,100354.17
2022-11-30T23:41:41.332Z,100355.41
2022-11-30T23:44:10.095Z,100353.66
2022-11-30T23:46:38.522Z,100354.38
2022-11-30T23:49:06.269Z,100351.48
2022-11-30T23:51:34.211Z,100350.36
2022-11-30T23:54:01.855Z,100351.71
2022-11-30T23:56:29.479Z,100350.63
2022-11-30T23:58:57.263Z,100349.36
